createdAt,value
2022-12-27T00:00:55.191Z,1006.49
2022-12-27T00:01:55.155Z,1006.51
2022-12-27T00:02:55.133Z,1006.52
2022-12-27T00:03:55.072Z,1006.56
2022-12-27T00:04:55.087Z,1006.49
2022-12-27T00:05:55.052Z,1006.49
2022-12-27T00:06:56.051Z,1006.55
2022-12-27T00:07:55.067Z,1006.50
2022-12-27T00:08:55.015Z,1006.57
2022-12-27T00:09:55.010Z,1006.59
2022-12-27T00:10:55.036Z,1006.55
2022-12-27T00:11:59.767Z,1006.56
2022-12-27T00:12:56.011Z,1006.55
2022-12-27T00:13:54.965Z,1006.62
2022-12-27T00:14:54.951Z,1006.58
2022-12-27T00:15:54.952Z,1006.62
2022-12-27T00:16:54.953Z,1006.67
2022-12-27T00:17:54.937Z,1006.71
2022-12-27T00:18:55.919Z,1006.71
2022-12-27T00:19:55.900Z,1006.73
2022-12-27T00:20:54.890Z,1006.81
2022-12-27T00:21:54.887Z,1006.78
2022-12-27T00:22:54.880Z,1006.79
2022-12-27T00:23:54.884Z,1006.77
2022-12-27T00:24:54.853Z,1006.80
2022-12-27T00:25:55.826Z,1006.81
2022-12-27T00:26:54.843Z,1006.83
2022-12-27T00:27:54.825Z,1006.87
2022-12-27T00:28:54.781Z,1006.86
2022-12-27T00:29:54.802Z,1006.92
2022-12-27T00:30:54.831Z,1006.93
2022-12-27T00:31:55.802Z,1006.95
2022-12-27T00:32:54.757Z,1007.02
2022-12-27T00:33:54.750Z,1007.03
2022-12-27T00:34:54.757Z,1007.05
2022-12-27T00:35:54.765Z,1007.04
2022-12-27T00:36:54.709Z,1006.96
2022-12-27T00:37:54.694Z,1007.03
2022-12-27T00:38:54.682Z,1007.00
2022-12-27T00:39:54.699Z,1007.03
2022-12-27T00:40:54.706Z,1007.01
2022-12-27T00:41:54.641Z,1007.01
2022-12-27T00:42:54.643Z,1006.99
2022-12-27T00:43:55.672Z,1007.00
2022-12-27T00:44:55.648Z,1006.94
2022-12-27T00:45:54.687Z,1007.01
2022-12-27T00:46:55.601Z,1006.99
2022-12-27T00:47:55.629Z,1007.00
2022-12-27T00:48:54.585Z,1007.08
2022-12-27T00:49:54.589Z,1007.05
2022-12-27T00:50:54.568Z,1007.11
2022-12-27T00:51:55.607Z,1007.06
2022-12-27T00:52:54.535Z,1007.08
2022-12-27T00:53:54.510Z,1007.05
2022-12-27T00:54:54.516Z,1007.08
2022-12-27T00:55:54.513Z,1007.14
2022-12-27T00:56:54.492Z,1007.13
2022-12-27T00:57:54.513Z,1007.20
2022-12-27T00:58:54.463Z,1007.22
2022-12-27T00:59:54.455Z,1007.22
2022-12-27T01:00:54.568Z,1007.29
2022-12-27T01:01:54.669Z,1007.35
2022-12-27T01:02:54.449Z,1007.32
2022-12-27T01:03:54.447Z,1007.34
2022-12-27T01:04:54.405Z,1007.36
2022-12-27T01:05:54.427Z,1007.38
2022-12-27T01:06:54.396Z,1007.41
2022-12-27T01:07:54.372Z,1007.44
2022-12-27T01:08:54.365Z,1007.50
2022-12-27T01:09:54.375Z,1007.49
2022-12-27T01:10:54.335Z,1007.52
2022-12-27T01:11:54.317Z,1007.49
2022-12-27T01:12:54.340Z,1007.53
2022-12-27T01:13:55.357Z,1007.63
2022-12-27T01:14:54.316Z,1007.56
2022-12-27T01:15:54.333Z,1007.60
2022-12-27T01:16:54.351Z,1007.59
2022-12-27T01:17:54.263Z,1007.62
2022-12-27T01:18:54.263Z,1007.67
2022-12-27T01:19:54.230Z,1007.69
2022-12-27T01:20:54.247Z,1007.77
2022-12-27T01:21:54.251Z,1007.71
2022-12-27T01:22:54.197Z,1007.76
2022-12-27T01:23:55.185Z,1007.76
2022-12-27T01:24:54.203Z,1007.72
2022-12-27T01:25:54.170Z,1007.77
2022-12-27T01:26:54.183Z,1007.71
2022-12-27T01:27:54.171Z,1007.69
2022-12-27T01:28:54.139Z,1007.80
2022-12-27T01:29:54.153Z,1007.78
2022-12-27T01:30:54.116Z,1007.80
2022-12-27T01:31:54.181Z,1007.76
2022-12-27T01:32:54.152Z,1007.77
2022-12-27T01:33:54.120Z,1007.82
2022-12-27T01:34:54.076Z,1007.76
2022-12-27T01:35:55.080Z,1007.79
2022-12-27T01:36:54.111Z,1007.83
2022-12-27T01:37:54.066Z,1007.86
2022-12-27T01:38:54.052Z,1007.86
2022-12-27T01:39:54.003Z,1007.84
2022-12-27T01:40:54.988Z,1007.81
2022-12-27T01:41:54.008Z,1007.86
2022-12-27T01:42:53.996Z,1007.76
2022-12-27T01:43:53.985Z,1007.84
2022-12-27T01:44:53.958Z,1007.74
2022-12-27T01:45:54.029Z,1007.82
2022-12-27T01:46:53.996Z,1007.81
2022-12-27T01:47:53.909Z,1007.81
2022-12-27T01:48:53.915Z,1007.81
2022-12-27T01:49:53.927Z,1007.78
2022-12-27T01:50:53.925Z,1007.92
2022-12-27T01:51:53.874Z,1007.89
2022-12-27T01:52:53.893Z,1007.90
2022-12-27T01:53:53.870Z,1007.94
2022-12-27T01:54:53.868Z,1007.92
2022-12-27T01:55:53.858Z,1007.92
2022-12-27T01:56:53.818Z,1007.97
2022-12-27T01:57:53.836Z,1008.02
2022-12-27T01:58:54.807Z,1008.05
2022-12-27T01:59:53.795Z,1008.05
2022-12-27T02:00:53.835Z,1008.21
2022-12-27T02:01:53.880Z,1008.19
2022-12-27T02:02:53.853Z,1008.18
2022-12-27T02:03:53.739Z,1008.17
2022-12-27T02:04:53.863Z,1008.21
2022-12-27T02:05:53.745Z,1008.27
2022-12-27T02:06:53.715Z,1008.27
2022-12-27T02:07:53.707Z,1008.31
2022-12-27T02:08:53.675Z,1008.30
2022-12-27T02:09:53.724Z,1008.31
2022-12-27T02:10:53.707Z,1008.27
2022-12-27T02:11:54.722Z,1008.34
2022-12-27T02:12:53.662Z,1008.30
2022-12-27T02:13:53.641Z,1008.32
2022-12-27T02:14:53.629Z,1008.41
2022-12-27T02:15:53.605Z,1008.35
2022-12-27T02:16:53.615Z,1008.39
2022-12-27T02:17:53.615Z,1008.39
2022-12-27T02:18:53.595Z,1008.45
2022-12-27T02:19:53.617Z,1008.44
2022-12-27T02:20:53.543Z,1008.44
2022-12-27T02:21:53.572Z,1008.43
2022-12-27T02:22:53.544Z,1008.47
2022-12-27T02:23:53.534Z,1008.45
2022-12-27T02:24:53.530Z,1008.47
2022-12-27T02:25:54.535Z,1008.47
2022-12-27T02:26:53.493Z,1008.46
2022-12-27T02:27:54.514Z,1008.52
2022-12-27T02:28:53.457Z,1008.55
2022-12-27T02:29:54.445Z,1008.48
2022-12-27T02:30:53.520Z,1008.56
2022-12-27T02:31:53.442Z,1008.53
2022-12-27T02:32:53.427Z,1008.53
2022-12-27T02:33:53.454Z,1008.56
2022-12-27T02:34:53.404Z,1008.63
2022-12-27T02:35:53.417Z,1008.58
2022-12-27T02:36:53.376Z,1008.62
2022-12-27T02:37:53.370Z,1008.66
2022-12-27T02:38:53.361Z,1008.58
2022-12-27T02:39:53.354Z,1008.61
2022-12-27T02:40:53.336Z,1008.59
2022-12-27T02:41:53.402Z,1008.63
2022-12-27T02:42:53.346Z,1008.64
2022-12-27T02:43:53.295Z,1008.59
2022-12-27T02:44:54.353Z,1008.64
2022-12-27T02:45:53.297Z,1008.60
2022-12-27T02:46:53.273Z,1008.49
2022-12-27T02:47:53.251Z,1008.59
2022-12-27T02:48:54.245Z,1008.61
2022-12-27T02:49:53.223Z,1008.61
2022-12-27T02:50:53.207Z,1008.64
2022-12-27T02:51:54.255Z,1008.64
2022-12-27T02:52:53.210Z,1008.57
2022-12-27T02:53:53.173Z,1008.61
2022-12-27T02:54:53.213Z,1008.59
2022-12-27T02:55:54.187Z,1008.58
2022-12-27T02:56:53.176Z,1008.65
2022-12-27T02:57:53.162Z,1008.61
2022-12-27T02:58:53.155Z,1008.62
2022-12-27T02:59:53.157Z,1008.67
2022-12-27T03:00:53.122Z,1008.74
2022-12-27T03:01:53.238Z,1008.70
2022-12-27T03:02:54.141Z,1008.72
2022-12-27T03:03:53.099Z,1008.77
2022-12-27T03:04:53.095Z,1008.73
2022-12-27T03:05:53.053Z,1008.80
2022-12-27T03:06:53.051Z,1008.79
2022-12-27T03:07:54.036Z,1008.85
2022-12-27T03:08:53.062Z,1008.85
2022-12-27T03:09:53.017Z,1008.87
2022-12-27T03:10:53.014Z,1008.88
2022-12-27T03:11:52.993Z,1008.87
2022-12-27T03:12:52.971Z,1008.93
2022-12-27T03:13:53.115Z,1008.92
2022-12-27T03:14:52.992Z,1008.97
2022-12-27T03:15:53.018Z,1008.97
2022-12-27T03:16:52.924Z,1009.04
2022-12-27T03:17:52.956Z,1009.04
2022-12-27T03:18:52.927Z,1009.10
2022-12-27T03:19:52.884Z,1009.04
2022-12-27T03:20:52.896Z,1009.02
2022-12-27T03:21:52.877Z,1008.97
2022-12-27T03:22:53.869Z,1009.01
2022-12-27T03:23:52.876Z,1008.98
2022-12-27T03:24:52.844Z,1008.97
2022-12-27T03:25:52.840Z,1008.94
2022-12-27T03:26:52.846Z,1008.95
2022-12-27T03:27:53.799Z,1008.90
2022-12-27T03:28:52.892Z,1008.98
2022-12-27T03:29:52.794Z,1008.94
2022-12-27T03:30:52.822Z,1008.91
2022-12-27T03:31:53.807Z,1008.96
2022-12-27T03:32:53.740Z,1009.00
2022-12-27T03:33:53.761Z,1008.97
2022-12-27T03:34:52.723Z,1009.04
2022-12-27T03:35:52.715Z,1009.05
2022-12-27T03:36:53.711Z,1008.99
2022-12-27T03:37:52.711Z,1009.03
2022-12-27T03:38:52.709Z,1009.01
2022-12-27T03:39:52.697Z,1009.01
2022-12-27T03:40:52.657Z,1009.06
2022-12-27T03:41:52.730Z,1008.99
2022-12-27T03:42:52.669Z,1009.00
2022-12-27T03:43:52.635Z,1009.00
2022-12-27T03:44:52.642Z,1009.07
2022-12-27T03:45:52.626Z,1009.03
2022-12-27T03:46:52.591Z,1009.08
2022-12-27T03:47:52.610Z,1009.10
2022-12-27T03:48:53.600Z,1009.04
2022-12-27T03:49:52.648Z,1009.12
2022-12-27T03:50:52.574Z,1009.07
2022-12-27T03:51:52.542Z,1009.12
2022-12-27T03:52:52.551Z,1009.05
2022-12-27T03:53:53.551Z,1009.00
2022-12-27T03:54:52.544Z,1009.07
2022-12-27T03:55:52.520Z,1009.04
2022-12-27T03:56:52.512Z,1009.16
2022-12-27T03:57:52.492Z,1009.09
2022-12-27T03:58:53.480Z,1009.09
2022-12-27T03:59:52.486Z,1009.10
2022-12-27T04:00:52.435Z,1009.14
2022-12-27T04:01:53.567Z,1009.05
2022-12-27T04:02:52.569Z,1009.09
2022-12-27T04:03:52.405Z,1009.09
2022-12-27T04:04:52.412Z,1009.09
2022-12-27T04:05:52.403Z,1009.27
2022-12-27T04:06:52.373Z,1009.22
2022-12-27T04:07:52.373Z,1009.24
2022-12-27T04:08:52.389Z,1009.27
2022-12-27T04:09:52.386Z,1009.24
2022-12-27T04:10:52.355Z,1009.22
2022-12-27T04:11:52.355Z,1009.27
2022-12-27T04:12:52.355Z,1009.26
2022-12-27T04:13:53.339Z,1009.30
2022-12-27T04:14:52.305Z,1009.38
2022-12-27T04:15:52.369Z,1009.34
2022-12-27T04:16:52.279Z,1009.40
2022-12-27T04:17:52.308Z,1009.35
2022-12-27T04:18:52.260Z,1009.38
2022-12-27T04:19:52.258Z,1009.31
2022-12-27T04:20:52.256Z,1009.37
2022-12-27T04:21:52.271Z,1009.33
2022-12-27T04:22:52.201Z,1009.33
2022-12-27T04:23:52.209Z,1009.32
2022-12-27T04:24:53.208Z,1009.26
2022-12-27T04:25:52.182Z,1009.34
2022-12-27T04:26:52.194Z,1009.28
2022-12-27T04:27:52.195Z,1009.34
2022-12-27T04:28:52.142Z,1009.24
2022-12-27T04:29:52.158Z,1009.31
2022-12-27T04:30:52.148Z,1009.31
2022-12-27T04:31:52.132Z,1009.33
2022-12-27T04:32:52.144Z,1009.27
2022-12-27T04:33:52.112Z,1009.29
2022-12-27T04:34:52.112Z,1009.29
2022-12-27T04:35:52.075Z,1009.23
2022-12-27T04:36:53.080Z,1009.32
2022-12-27T04:37:52.061Z,1009.29
2022-12-27T04:38:52.067Z,1009.34
2022-12-27T04:39:52.017Z,1009.35
2022-12-27T04:40:52.022Z,1009.26
2022-12-27T04:41:52.006Z,1009.26
2022-12-27T04:42:53.013Z,1009.23
2022-12-27T04:43:52.019Z,1009.29
2022-12-27T04:44:53.015Z,1009.29
2022-12-27T04:45:51.970Z,1009.31
2022-12-27T04:46:52.019Z,1009.30
2022-12-27T04:47:51.929Z,1009.28
2022-12-27T04:48:51.944Z,1009.31
2022-12-27T04:49:51.952Z,1009.29
2022-12-27T04:50:51.928Z,1009.34
2022-12-27T04:51:51.898Z,1009.36
2022-12-27T04:52:51.900Z,1009.36
2022-12-27T04:53:52.868Z,1009.30
2022-12-27T04:54:51.866Z,1009.41
2022-12-27T04:55:51.868Z,1009.32
2022-12-27T04:56:51.859Z,1009.35
2022-12-27T04:57:51.837Z,1009.34
2022-12-27T04:58:51.843Z,1009.34
2022-12-27T04:59:51.793Z,1009.33
2022-12-27T05:00:51.799Z,1009.29
2022-12-27T05:01:52.048Z,1009.39
2022-12-27T05:02:51.979Z,1009.29
2022-12-27T05:03:51.855Z,1009.34
2022-12-27T05:04:52.257Z,1009.35
2022-12-27T05:05:51.771Z,1009.38
2022-12-27T05:06:51.854Z,1009.34
2022-12-27T05:07:51.745Z,1009.31
2022-12-27T05:08:51.712Z,1009.34
2022-12-27T05:09:51.685Z,1009.27
2022-12-27T05:10:51.703Z,1009.36
2022-12-27T05:11:51.723Z,1009.35
2022-12-27T05:12:51.715Z,1009.39
2022-12-27T05:13:51.664Z,1009.39
2022-12-27T05:14:51.708Z,1009.48
2022-12-27T05:15:51.649Z,1009.41
2022-12-27T05:16:51.646Z,1009.45
2022-12-27T05:17:51.624Z,1009.44
2022-12-27T05:18:51.616Z,1009.45
2022-12-27T05:19:51.611Z,1009.47
2022-12-27T05:20:51.619Z,1009.49
2022-12-27T05:21:51.589Z,1009.44
2022-12-27T05:22:51.590Z,1009.48
2022-12-27T05:23:51.572Z,1009.57
2022-12-27T05:24:51.534Z,1009.48
2022-12-27T05:25:51.543Z,1009.50
2022-12-27T05:26:51.520Z,1009.55
2022-12-27T05:27:51.493Z,1009.60
2022-12-27T05:28:51.533Z,1009.52
2022-12-27T05:29:51.505Z,1009.49
2022-12-27T05:30:51.478Z,1009.49
2022-12-27T05:31:51.478Z,1009.49
2022-12-27T05:32:51.485Z,1009.48
2022-12-27T05:33:51.471Z,1009.44
2022-12-27T05:34:51.431Z,1009.50
2022-12-27T05:35:51.410Z,1009.49
2022-12-27T05:36:51.443Z,1009.46
2022-12-27T05:37:55.008Z,1009.49
2022-12-27T05:38:51.446Z,1009.44
2022-12-27T05:39:51.403Z,1009.47
2022-12-27T05:40:51.354Z,1009.48
2022-12-27T05:41:51.386Z,1009.43
2022-12-27T05:42:51.375Z,1009.39
2022-12-27T05:43:51.357Z,1009.44
2022-12-27T05:44:51.335Z,1009.39
2022-12-27T05:45:51.746Z,1009.41
2022-12-27T05:46:51.369Z,1009.42
2022-12-27T05:47:52.274Z,1009.46
2022-12-27T05:48:51.292Z,1009.50
2022-12-27T05:49:51.255Z,1009.45
2022-12-27T05:50:51.318Z,1009.37
2022-12-27T05:51:52.295Z,1009.49
2022-12-27T05:52:51.255Z,1009.41
2022-12-27T05:53:51.275Z,1009.41
2022-12-27T05:54:51.237Z,1009.40
2022-12-27T05:55:51.204Z,1009.40
2022-12-27T05:56:51.192Z,1009.43
2022-12-27T05:57:51.219Z,1009.50
2022-12-27T05:58:51.202Z,1009.46
2022-12-27T05:59:51.174Z,1009.45
2022-12-27T06:00:51.188Z,1009.54
2022-12-27T06:01:52.328Z,1009.51
2022-12-27T06:02:51.244Z,1009.59
2022-12-27T06:03:52.146Z,1009.65
2022-12-27T06:04:51.096Z,1009.77
2022-12-27T06:05:51.103Z,1009.67
2022-12-27T06:06:51.109Z,1009.75
2022-12-27T06:07:51.070Z,1009.73
2022-12-27T06:08:51.739Z,1009.74
2022-12-27T06:09:51.073Z,1009.84
2022-12-27T06:10:51.082Z,1009.78
2022-12-27T06:11:51.037Z,1009.82
2022-12-27T06:12:51.042Z,1009.83
2022-12-27T06:13:51.030Z,1009.80
2022-12-27T06:14:51.016Z,1009.81
2022-12-27T06:15:52.007Z,1009.85
2022-12-27T06:16:51.146Z,1009.85
2022-12-27T06:17:50.963Z,1009.88
2022-12-27T06:18:50.963Z,1009.95
2022-12-27T06:19:55.325Z,1009.91
2022-12-27T06:20:51.971Z,1009.90
2022-12-27T06:21:50.923Z,1009.98
2022-12-27T06:22:50.904Z,1009.90
2022-12-27T06:23:50.929Z,1009.85
2022-12-27T06:24:50.876Z,1009.88
2022-12-27T06:25:50.895Z,1009.93
2022-12-27T06:26:50.890Z,1009.86
2022-12-27T06:27:50.859Z,1009.90
2022-12-27T06:28:50.929Z,1009.95
2022-12-27T06:29:50.866Z,1009.93
2022-12-27T06:30:51.827Z,1009.92
2022-12-27T06:31:50.866Z,1009.90
2022-12-27T06:32:50.812Z,1009.96
2022-12-27T06:33:50.833Z,1009.93
2022-12-27T06:34:50.802Z,1009.86
2022-12-27T06:35:50.796Z,1009.92
2022-12-27T06:36:51.745Z,1009.97
2022-12-27T06:37:51.759Z,1009.89
2022-12-27T06:38:50.761Z,1009.93
2022-12-27T06:39:50.762Z,1009.91
2022-12-27T06:40:50.724Z,1009.86
2022-12-27T06:41:50.742Z,1009.93
2022-12-27T06:42:50.689Z,1009.89
2022-12-27T06:43:50.691Z,1009.80
2022-12-27T06:44:50.678Z,1009.87
2022-12-27T06:45:51.718Z,1009.92
2022-12-27T06:46:50.668Z,1009.99
2022-12-27T06:47:50.659Z,1009.98
2022-12-27T06:48:50.660Z,1009.97
2022-12-27T06:49:50.635Z,1009.99
2022-12-27T06:50:51.607Z,1009.97
2022-12-27T06:51:57.402Z,1009.96
2022-12-27T06:52:51.604Z,1010.02
2022-12-27T06:53:50.596Z,1009.96
2022-12-27T06:54:50.561Z,1010.04
2022-12-27T06:55:50.551Z,1009.95
2022-12-27T06:56:50.541Z,1010.01
2022-12-27T06:57:50.573Z,1010.04
2022-12-27T06:58:50.534Z,1010.14
2022-12-27T06:59:53.993Z,1010.08
2022-12-27T07:00:50.556Z,1010.19
2022-12-27T07:01:50.739Z,1010.22
2022-12-27T07:02:50.560Z,1010.20
2022-12-27T07:03:50.477Z,1010.31
2022-12-27T07:04:50.459Z,1010.29
2022-12-27T07:05:50.482Z,1010.36
2022-12-27T07:06:50.480Z,1010.35
2022-12-27T07:07:50.451Z,1010.38
2022-12-27T07:08:50.443Z,1010.34
2022-12-27T07:09:51.435Z,1010.41
2022-12-27T07:10:50.408Z,1010.38
2022-12-27T07:11:50.394Z,1010.52
2022-12-27T07:12:50.358Z,1010.43
2022-12-27T07:13:51.425Z,1010.51
2022-12-27T07:14:50.362Z,1010.42
2022-12-27T07:15:50.332Z,1010.43
2022-12-27T07:16:50.427Z,1010.49
2022-12-27T07:17:51.306Z,1010.44
2022-12-27T07:18:50.416Z,1010.53
2022-12-27T07:19:50.304Z,1010.50
2022-12-27T07:20:50.361Z,1010.53
2022-12-27T07:21:50.296Z,1010.53
2022-12-27T07:22:50.266Z,1010.57
2022-12-27T07:23:50.299Z,1010.55
2022-12-27T07:24:50.239Z,1010.64
2022-12-27T07:25:50.237Z,1010.64
2022-12-27T07:26:50.247Z,1010.76
2022-12-27T07:27:50.236Z,1010.78
2022-12-27T07:28:50.204Z,1010.68
2022-12-27T07:29:50.195Z,1010.81
2022-12-27T07:30:50.187Z,1010.78
2022-12-27T07:31:50.163Z,1010.84
2022-12-27T07:32:51.160Z,1010.75
2022-12-27T07:33:50.175Z,1010.90
2022-12-27T07:34:51.159Z,1010.89
2022-12-27T07:35:50.122Z,1010.83
2022-12-27T07:36:50.111Z,1010.82
2022-12-27T07:37:50.125Z,1010.79
2022-12-27T07:38:50.107Z,1010.87
2022-12-27T07:39:50.104Z,1010.88
2022-12-27T07:40:50.099Z,1010.83
2022-12-27T07:41:50.069Z,1010.87
2022-12-27T07:42:50.033Z,1010.93
2022-12-27T07:43:50.101Z,1010.93
2022-12-27T07:44:50.040Z,1011.05
2022-12-27T07:45:50.080Z,1010.94
2022-12-27T07:46:50.003Z,1011.08
2022-12-27T07:47:50.982Z,1010.93
2022-12-27T07:48:50.036Z,1010.97
2022-12-27T07:49:49.980Z,1011.04
2022-12-27T07:50:49.970Z,1011.02
2022-12-27T07:51:49.949Z,1010.97
2022-12-27T07:52:49.967Z,1010.97
2022-12-27T07:53:49.965Z,1010.95
2022-12-27T07:54:49.923Z,1010.96
2022-12-27T07:55:49.919Z,1010.95
2022-12-27T07:56:49.903Z,1010.88
2022-12-27T07:57:49.886Z,1010.86
2022-12-27T07:58:49.861Z,1010.88
2022-12-27T07:59:49.900Z,1010.92
2022-12-27T08:00:50.640Z,1010.95
2022-12-27T08:01:49.956Z,1010.84
2022-12-27T08:02:49.845Z,1010.87
2022-12-27T08:03:49.820Z,1010.90
2022-12-27T08:04:49.828Z,1010.90
2022-12-27T08:05:49.861Z,1010.84
2022-12-27T08:06:49.821Z,1010.89
2022-12-27T08:07:49.820Z,1010.80
2022-12-27T08:08:49.778Z,1010.86
2022-12-27T08:09:49.760Z,1010.87
2022-12-27T08:10:49.734Z,1010.92
2022-12-27T08:11:49.733Z,1010.89
2022-12-27T08:12:49.753Z,1010.86
2022-12-27T08:13:49.731Z,1010.84
2022-12-27T08:14:50.730Z,1010.84
2022-12-27T08:15:49.700Z,1010.78
2022-12-27T08:16:49.729Z,1010.79
2022-12-27T08:17:49.710Z,1010.75
2022-12-27T08:18:49.648Z,1010.78
2022-12-27T08:19:49.654Z,1010.78
2022-12-27T08:20:49.627Z,1010.78
2022-12-27T08:21:50.651Z,1010.79
2022-12-27T08:22:49.640Z,1010.77
2022-12-27T08:23:49.608Z,1010.75
2022-12-27T08:24:49.615Z,1010.75
2022-12-27T08:25:49.646Z,1010.70
2022-12-27T08:26:50.579Z,1010.75
2022-12-27T08:27:49.579Z,1010.70
2022-12-27T08:28:50.599Z,1010.68
2022-12-27T08:29:49.559Z,1010.64
2022-12-27T08:30:49.571Z,1010.70
2022-12-27T08:31:49.524Z,1010.62
2022-12-27T08:32:49.516Z,1010.58
2022-12-27T08:33:56.505Z,1010.61
2022-12-27T08:34:50.557Z,1010.64
2022-12-27T08:35:54.004Z,1010.59
2022-12-27T08:36:57.719Z,1010.54
2022-12-27T08:37:50.453Z,1010.52
2022-12-27T08:38:49.440Z,1010.63
2022-12-27T08:39:49.449Z,1010.49
2022-12-27T08:40:49.412Z,1010.55
2022-12-27T08:41:49.400Z,1010.59
2022-12-27T08:42:49.420Z,1010.59
2022-12-27T08:43:50.425Z,1010.60
2022-12-27T08:44:49.396Z,1010.58
2022-12-27T08:45:49.462Z,1010.66
2022-12-27T08:46:49.348Z,1010.70
2022-12-27T08:47:49.348Z,1010.67
2022-12-27T08:48:57.201Z,1010.68
2022-12-27T08:49:49.329Z,1010.71
2022-12-27T08:50:49.317Z,1010.76
2022-12-27T08:51:49.320Z,1010.68
2022-12-27T08:52:50.354Z,1010.59
2022-12-27T08:53:49.277Z,1010.74
2022-12-27T08:54:49.262Z,1010.64
2022-12-27T08:55:49.262Z,1010.63
2022-12-27T08:56:49.249Z,1010.67
2022-12-27T08:57:49.268Z,1010.75
2022-12-27T08:58:49.277Z,1010.61
2022-12-27T08:59:49.208Z,1010.75
2022-12-27T09:00:49.203Z,1010.83
2022-12-27T09:01:50.269Z,1010.87
2022-12-27T09:02:50.216Z,1010.85
2022-12-27T09:03:49.195Z,1010.82
2022-12-27T09:04:50.163Z,1010.89
2022-12-27T09:05:49.141Z,1010.87
2022-12-27T09:06:49.171Z,1010.90
2022-12-27T09:07:49.168Z,1010.99
2022-12-27T09:08:50.127Z,1011.14
2022-12-27T09:09:49.149Z,1011.14
2022-12-27T09:10:50.102Z,1011.11
2022-12-27T09:11:49.083Z,1011.13
2022-12-27T09:12:49.089Z,1011.14
2022-12-27T09:13:50.083Z,1011.14
2022-12-27T09:14:50.088Z,1011.11
2022-12-27T09:15:49.079Z,1011.15
2022-12-27T09:16:49.053Z,1011.17
2022-12-27T09:17:50.008Z,1011.19
2022-12-27T09:18:49.033Z,1011.19
2022-12-27T09:19:49.039Z,1011.22
2022-12-27T09:20:49.024Z,1011.20
2022-12-27T09:21:48.975Z,1011.24
2022-12-27T09:22:49.994Z,1011.27
2022-12-27T09:23:49.949Z,1011.26
2022-12-27T09:24:49.947Z,1011.18
2022-12-27T09:25:49.013Z,1011.22
2022-12-27T09:26:48.940Z,1011.18
2022-12-27T09:27:49.935Z,1011.20
2022-12-27T09:28:48.917Z,1011.19
2022-12-27T09:29:48.905Z,1011.23
2022-12-27T09:30:48.932Z,1011.17
2022-12-27T09:31:48.880Z,1011.19
2022-12-27T09:32:49.853Z,1011.24
2022-12-27T09:33:49.855Z,1011.22
2022-12-27T09:34:48.840Z,1011.22
2022-12-27T09:35:48.820Z,1011.27
2022-12-27T09:36:48.828Z,1011.27
2022-12-27T09:37:48.811Z,1011.19
2022-12-27T09:38:48.808Z,1011.25
2022-12-27T09:39:48.786Z,1011.31
2022-12-27T09:40:48.767Z,1011.29
2022-12-27T09:43:00.802Z,1011.29
2022-12-27T09:43:49.756Z,1011.26
2022-12-27T09:44:48.764Z,1011.35
2022-12-27T09:45:48.709Z,1011.39
2022-12-27T09:46:49.696Z,1011.36
2022-12-27T09:47:48.745Z,1011.36
2022-12-27T09:48:49.690Z,1011.32
2022-12-27T09:49:48.675Z,1011.33
2022-12-27T09:50:49.668Z,1011.35
2022-12-27T09:51:48.638Z,1011.34
2022-12-27T09:52:48.663Z,1011.34
2022-12-27T09:53:48.610Z,1011.39
2022-12-27T09:54:48.633Z,1011.38
2022-12-27T09:55:48.622Z,1011.33
2022-12-27T09:57:19.399Z,1011.34
2022-12-27T09:57:49.604Z,1011.36
2022-12-27T09:58:49.564Z,1011.41
2022-12-27T09:59:48.562Z,1011.37
2022-12-27T10:00:48.577Z,1011.34
2022-12-27T10:01:48.598Z,1011.36
2022-12-27T10:02:48.555Z,1011.38
2022-12-27T10:03:48.543Z,1011.40
2022-12-27T10:05:19.727Z,1011.34
2022-12-27T10:05:54.639Z,1011.25
2022-12-27T10:06:49.473Z,1011.38
2022-12-27T10:07:49.459Z,1011.37
2022-12-27T10:08:48.526Z,1011.28
2022-12-27T10:09:48.434Z,1011.29
2022-12-27T10:10:48.429Z,1011.27
2022-12-27T10:11:49.447Z,1011.22
2022-12-27T10:12:48.430Z,1011.25
2022-12-27T10:13:48.426Z,1011.31
2022-12-27T10:14:48.403Z,1011.30
2022-12-27T10:15:49.106Z,1011.27
2022-12-27T10:16:49.389Z,1011.33
2022-12-27T10:17:53.086Z,1011.36
2022-12-27T10:18:49.325Z,1011.34
2022-12-27T10:19:48.335Z,1011.38
2022-12-27T10:20:48.320Z,1011.35
2022-12-27T10:21:48.331Z,1011.56
2022-12-27T10:22:48.297Z,1011.43
2022-12-27T10:23:48.279Z,1011.26
2022-12-27T10:24:48.287Z,1011.37
2022-12-27T10:25:48.289Z,1011.38
2022-12-27T10:26:48.264Z,1011.31
2022-12-27T10:27:48.255Z,1011.35
2022-12-27T10:28:49.619Z,1011.40
2022-12-27T10:29:49.205Z,1011.52
2022-12-27T10:30:48.208Z,1011.39
2022-12-27T10:31:48.197Z,1011.40
2022-12-27T10:32:49.179Z,1011.44
2022-12-27T10:33:48.193Z,1011.46
2022-12-27T10:34:48.174Z,1011.48
2022-12-27T10:35:48.190Z,1011.47
2022-12-27T10:36:48.188Z,1011.48
2022-12-27T10:37:48.121Z,1011.50
2022-12-27T10:38:49.153Z,1011.52
2022-12-27T10:39:48.099Z,1011.54
2022-12-27T10:40:49.120Z,1011.58
2022-12-27T10:41:48.107Z,1011.64
2022-12-27T10:42:48.061Z,1011.54
2022-12-27T10:43:48.074Z,1011.62
2022-12-27T10:44:48.090Z,1011.59
2022-12-27T10:45:48.041Z,1011.61
2022-12-27T10:46:48.080Z,1011.51
2022-12-27T10:47:48.051Z,1011.58
2022-12-27T10:49:19.649Z,1011.60
2022-12-27T10:49:49.001Z,1011.63
2022-12-27T10:50:47.997Z,1011.54
2022-12-27T10:51:48.993Z,1011.67
2022-12-27T10:52:51.490Z,1011.68
2022-12-27T10:53:48.959Z,1011.56
2022-12-27T10:54:48.961Z,1011.62
2022-12-27T10:55:47.938Z,1011.57
2022-12-27T10:56:47.958Z,1011.53
2022-12-27T10:57:47.911Z,1011.59
2022-12-27T10:58:52.891Z,1011.60
2022-12-27T10:59:48.903Z,1011.55
2022-12-27T11:00:47.916Z,1011.60
2022-12-27T11:01:48.040Z,1011.51
2022-12-27T11:02:47.953Z,1011.53
2022-12-27T11:03:47.861Z,1011.61
2022-12-27T11:04:47.846Z,1011.61
2022-12-27T11:05:47.840Z,1011.60
2022-12-27T11:06:47.817Z,1011.51
2022-12-27T11:07:48.844Z,1011.56
2022-12-27T11:08:47.790Z,1011.58
2022-12-27T11:09:51.226Z,1011.51
2022-12-27T11:10:47.767Z,1011.52
2022-12-27T11:11:47.743Z,1011.49
2022-12-27T11:12:47.781Z,1011.51
2022-12-27T11:13:47.763Z,1011.53
2022-12-27T11:14:47.713Z,1011.59
2022-12-27T11:15:47.795Z,1011.60
2022-12-27T11:16:47.787Z,1011.56
2022-12-27T11:17:47.727Z,1011.50
2022-12-27T11:18:47.666Z,1011.52
2022-12-27T11:19:47.725Z,1011.51
2022-12-27T11:20:47.658Z,1011.62
2022-12-27T11:21:47.671Z,1011.62
2022-12-27T11:22:47.649Z,1011.56
2022-12-27T11:23:47.731Z,1011.50
2022-12-27T11:24:47.599Z,1011.49
2022-12-27T11:25:47.613Z,1011.50
2022-12-27T11:26:53.517Z,1011.51
2022-12-27T11:27:48.573Z,1011.52
2022-12-27T11:28:47.595Z,1011.48
2022-12-27T11:29:47.559Z,1011.46
2022-12-27T11:30:48.549Z,1011.52
2022-12-27T11:31:47.586Z,1011.48
2022-12-27T11:32:47.538Z,1011.49
2022-12-27T11:33:47.671Z,1011.42
2022-12-27T11:34:47.488Z,1011.48
2022-12-27T11:35:47.488Z,1011.47
2022-12-27T11:36:48.497Z,1011.50
2022-12-27T11:37:47.466Z,1011.51
2022-12-27T11:38:47.459Z,1011.59
2022-12-27T11:39:48.456Z,1011.57
2022-12-27T11:40:47.418Z,1011.48
2022-12-27T11:41:47.485Z,1011.60
2022-12-27T11:42:48.420Z,1011.58
2022-12-27T11:43:47.411Z,1011.62
2022-12-27T11:44:47.410Z,1011.59
2022-12-27T11:45:47.387Z,1011.59
2022-12-27T11:46:47.409Z,1011.62
2022-12-27T11:47:47.371Z,1011.70
2022-12-27T11:48:47.365Z,1011.60
2022-12-27T11:49:47.338Z,1011.67
2022-12-27T11:50:48.330Z,1011.67
2022-12-27T11:51:47.299Z,1011.62
2022-12-27T11:52:48.332Z,1011.66
2022-12-27T11:53:49.786Z,1011.60
2022-12-27T11:54:48.303Z,1011.63
2022-12-27T11:55:47.267Z,1011.63
2022-12-27T11:56:47.271Z,1011.67
2022-12-27T11:57:47.284Z,1011.64
2022-12-27T11:58:48.237Z,1011.64
2022-12-27T11:59:48.209Z,1011.55
2022-12-27T12:00:47.249Z,1011.54
2022-12-27T12:01:47.382Z,1011.58
2022-12-27T12:02:47.359Z,1011.62
2022-12-27T12:03:47.197Z,1011.56
2022-12-27T12:04:47.166Z,1011.57
2022-12-27T12:05:47.156Z,1011.57
2022-12-27T12:06:47.178Z,1011.64